Las Cruces International Airport
KLRU : now visible

Airfield :











YOU CAN JOIN US ON...

 
LOGIN :

Register | Disclaimer

   EN    FR    IT 

 









Legend :    VFR   Marginal VFR   IFR   Intensive IFR   Very Intensive IFR
Visi :
Ceiling :
>= 8 km
>= 3000ft
5 to 8 km
1000 to 3000 ft
1500m to 5 km
500 to 1000 ft
800 to 1500m
200 to 500 ft
< 800m
< 200 ft
Symbols :   Thunderstorms  Fog  Heavy snow  Heavy precipitations  Wind > 20 kt






- Airport Elevation : 4456 ft
- IATA code : LRU


KLRU - Las Cruces International

CURRENT METAR :
  • 041435Z AUTO 04004KT 10SM CLR 28/10 A3015 RMK AO2 T02770095

EXPIRED METARs :
  • 041415Z AUTO 34003KT 10SM CLR 27/10 A3014 RMK AO2 T02690097
  • 041355Z AUTO 00000KT 10SM CLR 26/10 A3014 RMK AO2 T02600100
  • 041335Z AUTO 00000KT 10SM CLR 25/10 A3014 RMK AO2 T02500102
  • 041315Z AUTO 00000KT 10SM CLR 24/11 A3014 RMK AO2 T02400106
  • 041255Z AUTO 00000KT 10SM CLR 22/11 A3013 RMK AO2 T02150106
  • 041235Z AUTO 00000KT 10SM CLR 20/10 A3013 RMK AO2 T01980104
  • 041215Z AUTO 00000KT 10SM CLR 21/11 A3013 RMK AO2 T02140107
  • 041155Z AUTO 02004KT 10SM CLR 21/11 A3012 RMK AO2 T02070111 10274 20200

TAF KLRU
Valid from the 04 at 12:00 until the 05 at 12:00 UTC


041120Z 0412/0512 VRB04KT P6SM SCT100
FM042100 26010KT P6SM SCT100
KZAB FIR / North America



MET'MAP, your aeronautical weather chart ! - Copyright ORBIFLY December 2007 - Disclaimer

ORBIFLY MET'MAP TEAM :

Programming & Development : Alexandra Zaïnal
Concept & original design : Baudouin d'Aumeries
Assistance for programming : Marc-Olivier Méhu
Technical & hardware support : Manuel Goepfert

Contact : metmap@orbifly.com




SOURCES & CREDITS :

   NOAA       Earth
Advisory